createdAt,value
2019-03-25T00:01:00.000Z,6.8
2019-03-25T00:02:06.000Z,6.8
2019-03-25T00:03:12.000Z,6.9
2019-03-25T00:04:19.000Z,7
2019-03-25T00:05:25.000Z,7.1
2019-03-25T00:06:31.000Z,7.1
2019-03-25T00:07:37.000Z,7.1
2019-03-25T00:08:43.000Z,7.1
2019-03-25T00:09:50.000Z,7.1
2019-03-25T00:10:56.000Z,7.2
2019-03-25T00:12:02.000Z,7.2
2019-03-25T00:13:08.000Z,7.3
2019-03-25T00:14:15.000Z,7.1
2019-03-25T00:15:21.000Z,7.1
2019-03-25T00:16:27.000Z,7.2
2019-03-25T00:17:33.000Z,7.3
2019-03-25T00:18:39.000Z,7.4
2019-03-25T00:19:46.000Z,7.4
2019-03-25T00:20:52.000Z,7.4
2019-03-25T00:21:58.000Z,7.3
2019-03-25T00:23:04.000Z,7.4
2019-03-25T00:24:10.000Z,7.4
2019-03-25T00:25:17.000Z,7.4
2019-03-25T00:26:23.000Z,7.5
2019-03-25T00:27:29.000Z,7.5
2019-03-25T00:28:35.000Z,7.4
2019-03-25T00:29:42.000Z,7.1
2019-03-25T00:30:48.000Z,7.1
2019-03-25T00:31:54.000Z,7.1
2019-03-25T00:33:00.000Z,7.3
2019-03-25T00:34:06.000Z,7.3
2019-03-25T00:35:13.000Z,7.4
2019-03-25T00:36:19.000Z,7.6
2019-03-25T00:37:25.000Z,7.5
2019-03-25T00:38:31.000Z,7.3
2019-03-25T00:39:37.000Z,7.2
2019-03-25T00:40:44.000Z,7.1
2019-03-25T00:41:50.000Z,7.1
2019-03-25T00:42:56.000Z,7.2
2019-03-25T00:44:02.000Z,7.2
2019-03-25T00:45:09.000Z,7.1
2019-03-25T00:46:15.000Z,7
2019-03-25T00:47:21.000Z,7
2019-03-25T00:48:27.000Z,7
2019-03-25T00:49:33.000Z,6.9
2019-03-25T00:50:40.000Z,6.9
2019-03-25T00:51:46.000Z,6.8
2019-03-25T00:52:52.000Z,6.7
2019-03-25T00:53:58.000Z,6.7
2019-03-25T00:55:04.000Z,6.7
2019-03-25T00:56:11.000Z,6.6
2019-03-25T00:57:17.000Z,6.6
2019-03-25T00:58:23.000Z,6.5
2019-03-25T00:59:29.000Z,6.5
2019-03-25T01:00:36.000Z,6.5
2019-03-25T01:01:42.000Z,6.6
2019-03-25T01:02:48.000Z,6.6
2019-03-25T01:03:54.000Z,6.6
2019-03-25T01:05:00.000Z,6.6
2019-03-25T01:06:07.000Z,6.7
2019-03-25T01:07:13.000Z,6.6
2019-03-25T01:08:19.000Z,6.6
2019-03-25T01:09:25.000Z,6.6
2019-03-25T01:10:31.000Z,6.6
2019-03-25T01:11:38.000Z,6.7
2019-03-25T01:12:44.000Z,6.8
2019-03-25T01:13:50.000Z,6.8
2019-03-25T01:14:56.000Z,6.8
2019-03-25T01:16:03.000Z,6.8
2019-03-25T01:17:09.000Z,6.8
2019-03-25T01:18:15.000Z,6.8
2019-03-25T01:19:21.000Z,6.8
2019-03-25T01:20:27.000Z,6.8
2019-03-25T01:21:34.000Z,6.8
2019-03-25T01:22:40.000Z,6.8
2019-03-25T01:23:46.000Z,6.9
2019-03-25T01:24:52.000Z,6.8
2019-03-25T01:25:58.000Z,6.9
2019-03-25T01:27:05.000Z,6.9
2019-03-25T01:28:11.000Z,6.9
2019-03-25T01:29:17.000Z,6.9
2019-03-25T01:30:23.000Z,6.9
2019-03-25T01:31:30.000Z,6.9
2019-03-25T01:32:36.000Z,7
2019-03-25T01:33:42.000Z,7.1
2019-03-25T01:34:48.000Z,7.1
2019-03-25T01:35:54.000Z,7.1
2019-03-25T01:37:01.000Z,7.1
2019-03-25T01:38:07.000Z,7.1
2019-03-25T01:39:13.000Z,7.1
2019-03-25T01:40:19.000Z,7.1
2019-03-25T01:41:25.000Z,7.1
2019-03-25T01:42:32.000Z,7.2
2019-03-25T01:43:38.000Z,7.1
2019-03-25T01:44:44.000Z,7.1
2019-03-25T01:45:50.000Z,7.1
2019-03-25T01:46:57.000Z,7.1
2019-03-25T01:48:03.000Z,7.1
2019-03-25T01:49:09.000Z,7
2019-03-25T01:50:15.000Z,7
2019-03-25T01:51:21.000Z,7
2019-03-25T01:52:28.000Z,7
2019-03-25T01:53:34.000Z,7
2019-03-25T01:54:40.000Z,7.1
2019-03-25T01:55:46.000Z,7.2
2019-03-25T01:56:52.000Z,7.2
2019-03-25T01:57:59.000Z,7.2
2019-03-25T01:59:05.000Z,7.2
2019-03-25T02:00:11.000Z,7
2019-03-25T02:01:17.000Z,6.9
2019-03-25T02:02:24.000Z,6.9
2019-03-25T02:03:30.000Z,6.9
2019-03-25T02:04:36.000Z,6.9
2019-03-25T02:05:42.000Z,6.9
2019-03-25T02:06:48.000Z,7
2019-03-25T02:07:55.000Z,7
2019-03-25T02:09:01.000Z,6.9
2019-03-25T02:10:07.000Z,6.9
2019-03-25T02:11:13.000Z,6.9
2019-03-25T02:12:19.000Z,6.9
2019-03-25T02:13:26.000Z,6.9
2019-03-25T02:14:32.000Z,6.8
2019-03-25T02:15:38.000Z,6.8
2019-03-25T02:16:44.000Z,6.8
2019-03-25T02:17:51.000Z,6.9
2019-03-25T02:18:57.000Z,6.8
2019-03-25T02:20:03.000Z,6.8
2019-03-25T02:21:09.000Z,6.8
2019-03-25T02:22:15.000Z,6.8
2019-03-25T02:23:22.000Z,6.8
2019-03-25T02:24:28.000Z,6.8
2019-03-25T02:25:34.000Z,6.8
2019-03-25T02:26:40.000Z,6.8
2019-03-25T02:27:46.000Z,6.8
2019-03-25T02:28:53.000Z,6.8
2019-03-25T02:29:59.000Z,6.8
2019-03-25T02:31:05.000Z,6.8
2019-03-25T02:32:11.000Z,6.7
2019-03-25T02:33:18.000Z,6.7
2019-03-25T02:34:24.000Z,6.7
2019-03-25T02:35:30.000Z,6.7
2019-03-25T02:36:36.000Z,6.7
2019-03-25T02:37:42.000Z,6.6
2019-03-25T02:38:49.000Z,6.7
2019-03-25T02:39:55.000Z,6.7
2019-03-25T02:41:01.000Z,6.6
2019-03-25T02:42:07.000Z,6.6
2019-03-25T02:43:13.000Z,6.6
2019-03-25T02:44:20.000Z,6.5
2019-03-25T02:45:26.000Z,6.5
2019-03-25T02:46:32.000Z,6.6
2019-03-25T02:47:38.000Z,6.5
2019-03-25T02:48:45.000Z,6.5
2019-03-25T02:49:51.000Z,6.5
2019-03-25T02:50:57.000Z,6.5
2019-03-25T02:52:03.000Z,6.5
2019-03-25T02:53:09.000Z,6.5
2019-03-25T02:54:16.000Z,6.5
2019-03-25T02:55:22.000Z,6.5
2019-03-25T02:56:28.000Z,6.5
2019-03-25T02:57:34.000Z,6.5
2019-03-25T02:58:40.000Z,6.5
2019-03-25T02:59:47.000Z,6.5
2019-03-25T03:00:53.000Z,6.5
2019-03-25T03:01:59.000Z,6.5
2019-03-25T03:03:05.000Z,6.6
2019-03-25T03:04:12.000Z,6.6
2019-03-25T03:05:18.000Z,6.5
2019-03-25T03:06:24.000Z,6.5
2019-03-25T03:07:30.000Z,6.5
2019-03-25T03:08:36.000Z,6.5
2019-03-25T03:09:43.000Z,6.5
2019-03-25T03:10:49.000Z,6.5
2019-03-25T03:11:55.000Z,6.6
2019-03-25T03:13:01.000Z,6.6
2019-03-25T03:14:08.000Z,6.6
2019-03-25T03:15:14.000Z,6.6
2019-03-25T03:16:20.000Z,6.6
2019-03-25T03:17:26.000Z,6.6
2019-03-25T03:18:32.000Z,6.6
2019-03-25T03:19:39.000Z,6.6
2019-03-25T03:20:45.000Z,6.6
2019-03-25T03:21:51.000Z,6.6
2019-03-25T03:22:57.000Z,6.6
2019-03-25T03:24:03.000Z,6.6
2019-03-25T03:25:10.000Z,6.6
2019-03-25T03:26:16.000Z,6.6
2019-03-25T03:27:22.000Z,6.6
2019-03-25T03:28:28.000Z,6.6
2019-03-25T03:29:35.000Z,6.6
2019-03-25T03:30:41.000Z,6.7
2019-03-25T03:31:47.000Z,6.7
2019-03-25T03:32:53.000Z,6.6
2019-03-25T03:33:59.000Z,6.7
2019-03-25T03:35:06.000Z,6.6
2019-03-25T03:36:12.000Z,6.6
2019-03-25T03:37:18.000Z,6.6
2019-03-25T03:38:24.000Z,6.7
2019-03-25T03:39:30.000Z,6.7
2019-03-25T03:40:37.000Z,6.6
2019-03-25T03:41:43.000Z,6.6
2019-03-25T03:42:49.000Z,6.6
2019-03-25T03:43:55.000Z,6.6
2019-03-25T03:45:02.000Z,6.6
2019-03-25T03:46:08.000Z,6.6
2019-03-25T03:47:14.000Z,6.6
2019-03-25T03:48:20.000Z,6.6
2019-03-25T03:49:26.000Z,6.6
2019-03-25T03:50:33.000Z,6.6
2019-03-25T03:51:39.000Z,6.6
2019-03-25T03:53:51.000Z,6.6
2019-03-25T03:54:57.000Z,6.6
2019-03-25T03:56:04.000Z,6.6
2019-03-25T03:57:10.000Z,6.5
2019-03-25T03:58:16.000Z,6.6
2019-03-25T03:59:22.000Z,6.5
2019-03-25T04:00:29.000Z,6.5
2019-03-25T04:01:35.000Z,6.5
2019-03-25T04:02:41.000Z,6.5
2019-03-25T04:03:47.000Z,6.5
2019-03-25T04:04:53.000Z,6.5
2019-03-25T04:06:00.000Z,6.5
2019-03-25T04:07:06.000Z,6.5
2019-03-25T04:08:12.000Z,6.5
2019-03-25T04:09:18.000Z,6.5
2019-03-25T04:10:24.000Z,6.5
2019-03-25T04:11:31.000Z,6.5
2019-03-25T04:12:37.000Z,6.5
2019-03-25T04:13:43.000Z,6.5
2019-03-25T04:14:49.000Z,6.5
2019-03-25T04:15:56.000Z,6.6
2019-03-25T04:17:02.000Z,6.5
2019-03-25T04:18:08.000Z,6.5
2019-03-25T04:19:14.000Z,6.5
2019-03-25T04:20:20.000Z,6.4
2019-03-25T04:21:27.000Z,6.5
2019-03-25T04:22:33.000Z,6.5
2019-03-25T04:23:39.000Z,6.5
2019-03-25T04:24:45.000Z,6.5
2019-03-25T04:25:51.000Z,6.6
2019-03-25T04:26:58.000Z,6.5
2019-03-25T04:28:04.000Z,6.5
2019-03-25T04:29:10.577Z,6.5
2019-03-25T04:30:16.000Z,6.5
2019-03-25T04:31:23.000Z,6.5
2019-03-25T04:32:29.000Z,6.4
2019-03-25T04:33:35.000Z,6.4
2019-03-25T04:34:41.000Z,6.4
2019-03-25T04:35:47.000Z,6.4
2019-03-25T04:36:54.000Z,6.4
2019-03-25T04:38:00.000Z,6.4
2019-03-25T04:39:06.000Z,6.5
2019-03-25T04:40:12.000Z,6.4
2019-03-25T04:41:18.000Z,6.4
2019-03-25T04:42:25.000Z,6.4
2019-03-25T04:43:31.000Z,6.4
2019-03-25T04:44:37.000Z,6.4
2019-03-25T04:45:43.000Z,6.3
2019-03-25T04:46:50.000Z,6.4
2019-03-25T04:47:56.000Z,6.4
2019-03-25T04:49:02.000Z,6.4
2019-03-25T04:50:08.000Z,6.3
2019-03-25T04:51:14.000Z,6.3
2019-03-25T04:52:21.000Z,6.3
2019-03-25T04:53:27.000Z,6.3
2019-03-25T04:54:33.000Z,6.4
2019-03-25T04:55:39.000Z,6.3
2019-03-25T04:56:45.000Z,6.3
2019-03-25T04:57:52.000Z,6.3
2019-03-25T04:58:58.000Z,6.2
2019-03-25T05:00:04.000Z,6.2
2019-03-25T05:01:10.000Z,6.3
2019-03-25T05:02:17.000Z,6.2
2019-03-25T05:03:23.000Z,6.2
2019-03-25T05:04:29.000Z,6.2
2019-03-25T05:05:35.000Z,6.2
2019-03-25T05:06:41.000Z,6.2
2019-03-25T05:07:48.000Z,6.2
2019-03-25T05:08:54.000Z,6.1
2019-03-25T05:10:00.000Z,6.1
2019-03-25T05:11:06.000Z,6.1
2019-03-25T05:12:12.000Z,6
2019-03-25T05:13:19.000Z,6
2019-03-25T05:14:25.000Z,6
2019-03-25T05:15:31.000Z,6
2019-03-25T05:16:37.000Z,6
2019-03-25T05:17:44.000Z,6
2019-03-25T05:18:50.000Z,5.9
2019-03-25T05:19:56.000Z,5.9
2019-03-25T05:21:02.000Z,5.9
2019-03-25T05:22:08.000Z,5.8
2019-03-25T05:23:15.000Z,5.8
2019-03-25T05:24:21.000Z,5.8
2019-03-25T05:25:27.000Z,5.8
2019-03-25T05:26:33.000Z,5.7
2019-03-25T05:27:39.000Z,5.7
2019-03-25T05:28:46.000Z,5.7
2019-03-25T05:29:52.000Z,5.7
2019-03-25T05:30:58.000Z,5.6
2019-03-25T05:32:04.000Z,5.6
2019-03-25T05:33:11.000Z,5.5
2019-03-25T05:34:17.000Z,5.5
2019-03-25T05:35:23.000Z,5.5
2019-03-25T05:36:29.000Z,5.4
2019-03-25T05:37:35.000Z,5.5
2019-03-25T05:38:42.000Z,5.4
2019-03-25T05:39:48.000Z,5.4
2019-03-25T05:40:54.000Z,5.4
2019-03-25T05:42:00.000Z,5.3
2019-03-25T05:43:06.000Z,5.4
2019-03-25T05:44:13.000Z,5.2
2019-03-25T05:45:19.000Z,5.2
2019-03-25T05:46:25.000Z,5.2
2019-03-25T05:47:31.000Z,5.1
2019-03-25T05:48:38.000Z,5.2
2019-03-25T05:49:44.000Z,5.2
2019-03-25T05:50:50.000Z,5.1
2019-03-25T05:51:56.000Z,5.1
2019-03-25T05:53:02.000Z,5
2019-03-25T05:54:09.000Z,5
2019-03-25T05:55:15.000Z,5
2019-03-25T05:56:21.000Z,5
2019-03-25T05:57:27.000Z,5
2019-03-25T05:58:33.000Z,4.9
2019-03-25T05:59:40.000Z,4.9
2019-03-25T06:00:46.000Z,4.9
2019-03-25T06:01:52.000Z,4.8
2019-03-25T06:02:58.000Z,4.9
2019-03-25T06:04:05.000Z,4.9
2019-03-25T06:05:11.000Z,4.8
2019-03-25T06:06:17.000Z,4.8
2019-03-25T06:07:23.000Z,4.8
2019-03-25T06:08:29.000Z,4.8
2019-03-25T06:09:36.000Z,4.8
2019-03-25T06:10:42.000Z,4.8
2019-03-25T06:11:48.000Z,4.8
2019-03-25T06:12:54.000Z,4.8
2019-03-25T06:14:00.000Z,4.8
2019-03-25T06:15:07.000Z,4.7
2019-03-25T06:16:13.000Z,4.8
2019-03-25T06:17:19.000Z,4.7
2019-03-25T06:18:25.000Z,4.7
2019-03-25T06:19:32.000Z,4.7
2019-03-25T06:20:38.000Z,4.7
2019-03-25T06:21:44.000Z,4.8
2019-03-25T06:22:50.000Z,4.8
2019-03-25T06:23:56.000Z,4.8
2019-03-25T06:25:03.000Z,4.8
2019-03-25T06:26:09.000Z,4.8
2019-03-25T06:27:15.000Z,4.9
2019-03-25T06:28:21.000Z,4.8
2019-03-25T06:29:27.000Z,4.8
2019-03-25T06:30:34.000Z,4.7
2019-03-25T06:31:40.000Z,4.7
2019-03-25T06:32:46.000Z,4.7
2019-03-25T06:33:52.000Z,4.7
2019-03-25T06:34:59.000Z,4.7
2019-03-25T06:36:05.000Z,4.7
2019-03-25T06:37:11.000Z,4.7
2019-03-25T06:38:17.000Z,4.7
2019-03-25T06:39:23.000Z,4.7
2019-03-25T06:40:30.000Z,4.7
2019-03-25T06:41:36.000Z,4.8
2019-03-25T06:42:42.000Z,4.8
2019-03-25T06:43:48.000Z,4.8
2019-03-25T06:44:54.000Z,4.9
2019-03-25T06:46:01.000Z,4.9
2019-03-25T06:47:07.000Z,4.9
2019-03-25T06:48:13.000Z,4.9
2019-03-25T06:49:19.000Z,4.9
2019-03-25T06:50:26.000Z,4.9
2019-03-25T06:51:32.000Z,4.9
2019-03-25T06:52:38.000Z,4.9
2019-03-25T06:53:44.000Z,4.9
2019-03-25T06:54:50.000Z,4.9
2019-03-25T06:55:57.000Z,5
2019-03-25T06:57:03.000Z,5
2019-03-25T06:58:09.000Z,5
2019-03-25T06:59:15.000Z,5.1
2019-03-25T07:00:21.000Z,5
2019-03-25T07:01:28.000Z,5
2019-03-25T07:02:34.000Z,5
2019-03-25T07:03:40.000Z,5
2019-03-25T07:04:46.000Z,4.9
2019-03-25T07:05:53.000Z,4.9
2019-03-25T07:06:59.000Z,4.9
2019-03-25T07:08:05.000Z,4.9
2019-03-25T07:09:11.000Z,5
2019-03-25T07:10:17.000Z,5
2019-03-25T07:11:24.000Z,5
2019-03-25T07:12:30.000Z,5
2019-03-25T07:13:36.000Z,5.1
2019-03-25T07:14:42.000Z,5.1
2019-03-25T07:15:48.000Z,5.1
2019-03-25T07:16:55.000Z,5.1
2019-03-25T07:18:01.000Z,5.1
2019-03-25T07:19:07.000Z,5
2019-03-25T07:20:13.000Z,5.1
2019-03-25T07:21:20.000Z,5.1
2019-03-25T07:22:26.000Z,5.2
2019-03-25T07:23:32.000Z,5.2
2019-03-25T07:24:38.000Z,5.2
2019-03-25T07:25:44.000Z,5.1
2019-03-25T07:26:51.000Z,5.2
2019-03-25T07:27:57.000Z,5.2
2019-03-25T07:29:03.000Z,5.2
2019-03-25T07:30:09.000Z,5.2
2019-03-25T07:31:15.000Z,5.2
2019-03-25T07:32:22.000Z,5.3
2019-03-25T07:33:28.000Z,5.3
2019-03-25T07:34:34.000Z,5.4
2019-03-25T07:35:40.000Z,5.5
2019-03-25T07:36:47.000Z,5.5
2019-03-25T07:37:53.000Z,5.5
2019-03-25T07:38:59.000Z,5.6
2019-03-25T07:40:05.000Z,5.7
2019-03-25T07:41:11.000Z,5.7
2019-03-25T07:42:18.000Z,5.8
2019-03-25T07:43:24.000Z,5.8
2019-03-25T07:44:30.000Z,5.8
2019-03-25T07:45:36.000Z,5.9
2019-03-25T07:46:42.000Z,5.9
2019-03-25T07:47:49.000Z,5.9
2019-03-25T07:48:55.000Z,6
2019-03-25T07:50:01.000Z,6.1
2019-03-25T07:51:07.000Z,5.9
2019-03-25T07:52:14.000Z,5.9
2019-03-25T07:53:20.000Z,5.9
2019-03-25T07:54:26.000Z,5.9
2019-03-25T07:55:32.000Z,6
2019-03-25T07:56:38.000Z,6
2019-03-25T07:57:45.000Z,6
2019-03-25T07:58:51.000Z,5.9
2019-03-25T07:59:57.000Z,6
2019-03-25T08:01:03.000Z,5.9
2019-03-25T08:02:09.000Z,5.9
2019-03-25T08:03:16.000Z,5.8
2019-03-25T08:04:22.000Z,5.8
2019-03-25T08:05:28.000Z,5.9
2019-03-25T08:06:34.000Z,5.8
2019-03-25T08:07:41.000Z,5.8
2019-03-25T08:08:47.000Z,5.9
2019-03-25T08:09:53.000Z,6
2019-03-25T08:10:59.000Z,6.2
2019-03-25T08:12:05.000Z,6.3
2019-03-25T08:13:12.000Z,6.2
2019-03-25T08:14:18.000Z,6.1
2019-03-25T08:15:24.000Z,5.9
2019-03-25T08:16:30.000Z,6
2019-03-25T08:17:36.000Z,5.9
2019-03-25T08:18:43.000Z,6
2019-03-25T08:19:49.000Z,6
2019-03-25T08:20:55.000Z,6
2019-03-25T08:22:01.000Z,6
2019-03-25T08:23:08.000Z,6
2019-03-25T08:24:14.000Z,6
2019-03-25T08:25:20.000Z,6
2019-03-25T08:26:26.000Z,6.1
2019-03-25T08:27:32.000Z,6
2019-03-25T08:28:39.000Z,5.9
2019-03-25T08:29:45.000Z,6
2019-03-25T08:30:51.000Z,6.1
2019-03-25T08:31:57.000Z,6.4
2019-03-25T08:33:04.000Z,6.4
2019-03-25T08:34:10.000Z,6.3
2019-03-25T08:35:16.000Z,6.1
2019-03-25T08:36:22.000Z,6.2
2019-03-25T08:37:28.000Z,6.2
2019-03-25T08:38:35.000Z,6.2
2019-03-25T08:39:41.000Z,6.3
2019-03-25T08:40:47.000Z,6.3
2019-03-25T08:41:53.000Z,6.1
2019-03-25T08:42:59.000Z,6.2
2019-03-25T08:44:06.000Z,5.9
2019-03-25T08:45:12.000Z,6
2019-03-25T08:46:18.000Z,6.1
2019-03-25T08:47:24.000Z,6
2019-03-25T08:48:31.000Z,6
2019-03-25T08:49:37.000Z,6.1
2019-03-25T08:50:43.000Z,6
2019-03-25T08:51:49.000Z,5.9
2019-03-25T08:52:55.000Z,5.8
2019-03-25T08:54:02.000Z,5.8
2019-03-25T08:55:08.000Z,5.8
2019-03-25T08:56:14.000Z,5.8
2019-03-25T08:57:20.000Z,5.8
2019-03-25T08:58:26.000Z,5.8
2019-03-25T08:59:33.000Z,5.7
2019-03-25T09:00:39.000Z,5.9
2019-03-25T09:01:45.000Z,5.9
2019-03-25T09:02:51.000Z,5.9
2019-03-25T09:03:58.000Z,5.8
2019-03-25T09:05:04.000Z,5.7
2019-03-25T09:06:10.000Z,5.9
2019-03-25T09:07:16.000Z,6
2019-03-25T09:08:22.000Z,5.9
2019-03-25T09:09:29.000Z,5.9
2019-03-25T09:10:35.000Z,5.8
2019-03-25T09:11:41.000Z,5.8
2019-03-25T09:12:47.000Z,5.9
2019-03-25T09:13:54.000Z,6
2019-03-25T09:15:00.000Z,5.9
2019-03-25T09:16:06.000Z,6
2019-03-25T09:17:12.000Z,6
2019-03-25T09:18:18.000Z,5.9
2019-03-25T09:19:25.000Z,5.9
2019-03-25T09:20:31.000Z,5.8
2019-03-25T09:21:37.000Z,5.8
2019-03-25T09:22:43.000Z,5.9
2019-03-25T09:23:49.000Z,6.1
2019-03-25T09:24:56.000Z,6.1
2019-03-25T09:26:02.000Z,6.3
2019-03-25T09:27:08.000Z,6.2
2019-03-25T09:28:14.000Z,6.2
2019-03-25T09:29:21.000Z,6.3
2019-03-25T09:30:27.000Z,6.4
2019-03-25T09:31:33.000Z,6.3
2019-03-25T09:32:39.000Z,6.4
2019-03-25T09:33:45.000Z,6.7
2019-03-25T09:34:52.000Z,6.6
2019-03-25T09:35:58.000Z,6.2
2019-03-25T09:37:04.000Z,6.2
2019-03-25T09:38:10.000Z,6.3
2019-03-25T09:39:16.000Z,6.5
2019-03-25T09:40:23.000Z,6.8
2019-03-25T09:41:29.000Z,6.8
2019-03-25T09:42:35.000Z,6.6
2019-03-25T09:43:41.000Z,6.7
2019-03-25T09:44:48.000Z,7
2019-03-25T09:45:54.000Z,6.9
2019-03-25T09:47:00.000Z,6.7
2019-03-25T09:48:06.000Z,6.8
2019-03-25T09:49:12.000Z,6.8
2019-03-25T09:50:19.000Z,6.9
2019-03-25T09:51:25.000Z,7.2
2019-03-25T09:52:31.000Z,6.9
2019-03-25T09:53:37.000Z,6.8
2019-03-25T09:54:44.000Z,6.8
2019-03-25T09:55:50.000Z,6.7
2019-03-25T09:56:56.000Z,6.8
2019-03-25T09:58:02.000Z,6.7
2019-03-25T09:59:08.000Z,6.6
2019-03-25T10:00:15.000Z,6.7
2019-03-25T10:01:21.000Z,6.7
2019-03-25T10:02:27.000Z,6.7
2019-03-25T10:03:33.000Z,6.8
2019-03-25T10:04:39.000Z,6.9
2019-03-25T10:05:46.000Z,6.8
2019-03-25T10:06:52.000Z,7
2019-03-25T10:07:58.000Z,6.8
2019-03-25T10:09:04.000Z,6.8
2019-03-25T10:10:11.000Z,6.9
2019-03-25T10:11:17.000Z,7.1
2019-03-25T10:12:23.000Z,7.5
2019-03-25T10:13:29.000Z,7.1
2019-03-25T10:14:35.000Z,7.2
2019-03-25T10:15:42.000Z,7.1
2019-03-25T10:16:48.000Z,7.6
2019-03-25T10:17:54.000Z,7.7
2019-03-25T10:19:00.000Z,7.6
2019-03-25T10:20:06.000Z,7.5
2019-03-25T10:22:19.000Z,7.1
2019-03-25T10:23:25.000Z,6.9
2019-03-25T10:24:31.000Z,6.8
2019-03-25T10:25:38.000Z,6.8
2019-03-25T10:26:44.000Z,6.7
2019-03-25T10:27:50.000Z,6.7
2019-03-25T10:28:56.000Z,6.8
2019-03-25T10:30:02.000Z,6.8
2019-03-25T10:31:09.000Z,6.9
2019-03-25T10:32:15.000Z,6.9
2019-03-25T10:33:21.000Z,6.9
2019-03-25T10:34:27.000Z,6.9
2019-03-25T10:35:34.000Z,6.9
2019-03-25T10:36:40.000Z,7.1
2019-03-25T10:37:46.000Z,7.2
2019-03-25T10:38:52.000Z,7.3
2019-03-25T10:39:58.000Z,7
2019-03-25T10:41:05.000Z,6.9
2019-03-25T10:42:11.000Z,7
2019-03-25T10:43:17.000Z,7
2019-03-25T10:44:23.000Z,7
2019-03-25T10:45:29.000Z,7
2019-03-25T10:46:36.000Z,7.1
2019-03-25T10:47:42.000Z,6.9
2019-03-25T10:48:48.000Z,6.8
2019-03-25T10:49:54.000Z,7
2019-03-25T10:51:01.000Z,7
2019-03-25T10:52:07.000Z,7
2019-03-25T10:53:13.000Z,7
2019-03-25T10:54:19.000Z,6.9
2019-03-25T10:55:25.000Z,6.9
2019-03-25T10:56:32.000Z,6.9
2019-03-25T10:57:38.000Z,6.8
2019-03-25T10:58:44.000Z,6.8
2019-03-25T10:59:50.000Z,6.6
2019-03-25T11:00:57.000Z,6.5
2019-03-25T11:02:03.000Z,6.5
2019-03-25T11:03:09.000Z,6.4
2019-03-25T11:04:15.000Z,6.4
2019-03-25T11:05:21.000Z,6.4
2019-03-25T11:06:28.000Z,6.5
2019-03-25T11:07:34.000Z,6.5
2019-03-25T11:08:40.000Z,6.5
2019-03-25T11:09:46.000Z,6.5
2019-03-25T11:10:52.000Z,6.4
2019-03-25T11:11:59.000Z,6.5
2019-03-25T11:13:05.000Z,6.6
2019-03-25T11:14:11.000Z,6.5
2019-03-25T11:15:17.000Z,6.4
2019-03-25T11:16:24.000Z,6.3
2019-03-25T11:17:30.000Z,6.4
2019-03-25T11:18:36.000Z,6.5
2019-03-25T11:19:42.000Z,6.5
2019-03-25T11:20:48.000Z,6.4
2019-03-25T11:21:55.000Z,6.3
2019-03-25T11:23:01.000Z,6.4
2019-03-25T11:24:07.000Z,6.4
2019-03-25T11:25:13.000Z,6.3
2019-03-25T11:26:19.000Z,6.3
2019-03-25T11:27:26.000Z,6.3
2019-03-25T11:28:32.000Z,6.3
2019-03-25T11:29:38.000Z,6.4
2019-03-25T11:30:44.000Z,6.4
2019-03-25T11:31:51.000Z,6.4
2019-03-25T11:32:57.000Z,6.6
2019-03-25T11:34:03.000Z,6.8
2019-03-25T11:35:09.000Z,6.7
2019-03-25T11:36:15.000Z,6.8
2019-03-25T11:37:22.000Z,6.7
2019-03-25T11:38:28.000Z,6.8
2019-03-25T11:39:34.000Z,6.8
2019-03-25T11:40:40.000Z,6.8
2019-03-25T11:41:47.000Z,6.8
2019-03-25T11:42:53.000Z,6.8
2019-03-25T11:43:59.000Z,6.8
2019-03-25T11:45:05.000Z,7
2019-03-25T11:46:11.000Z,7
2019-03-25T11:47:18.000Z,7.1
2019-03-25T11:48:24.000Z,7.2
2019-03-25T11:49:30.000Z,7.2
2019-03-25T11:50:36.000Z,7.1
2019-03-25T11:51:42.000Z,6.9
2019-03-25T11:52:49.000Z,6.9
2019-03-25T11:53:55.000Z,6.7
2019-03-25T11:55:01.000Z,6.6
2019-03-25T11:56:07.000Z,6.6
2019-03-25T11:57:14.000Z,6.7
2019-03-25T11:58:20.000Z,6.6
2019-03-25T11:59:26.000Z,6.7
2019-03-25T12:00:32.000Z,6.6
2019-03-25T12:01:38.000Z,6.5
2019-03-25T12:02:45.000Z,6.5
2019-03-25T12:03:51.000Z,6.5
2019-03-25T12:04:57.000Z,6.4
2019-03-25T12:06:03.000Z,6.4
2019-03-25T12:07:09.000Z,6.4
2019-03-25T12:08:16.000Z,6.3
2019-03-25T12:09:22.000Z,6.3
2019-03-25T12:10:28.000Z,6.3
2019-03-25T12:11:34.000Z,6.2
2019-03-25T12:12:41.000Z,5.9
2019-03-25T12:13:47.000Z,5.6
2019-03-25T12:14:53.000Z,5.4
2019-03-25T12:15:59.000Z,5.3
2019-03-25T12:17:05.000Z,5.2
2019-03-25T12:18:12.000Z,5.1
2019-03-25T12:19:18.000Z,5
2019-03-25T12:20:24.000Z,4.8
2019-03-25T12:21:30.000Z,4.7
2019-03-25T12:22:37.000Z,4.8
2019-03-25T12:23:43.000Z,4.7
2019-03-25T12:24:49.000Z,4.6
2019-03-25T12:25:55.000Z,4.7
2019-03-25T12:27:01.000Z,4.6
2019-03-25T12:28:08.000Z,4.6
2019-03-25T12:29:14.000Z,4.6
2019-03-25T12:30:20.000Z,4.7
2019-03-25T12:31:26.000Z,4.8
2019-03-25T12:32:32.000Z,4.8
2019-03-25T12:33:39.000Z,4.9
2019-03-25T12:34:45.000Z,5
2019-03-25T12:35:51.000Z,5
2019-03-25T12:36:57.000Z,5
2019-03-25T12:38:04.000Z,5.1
2019-03-25T12:39:10.000Z,5.2
2019-03-25T12:40:16.000Z,5.2
2019-03-25T12:41:22.000Z,5.2
2019-03-25T12:42:28.000Z,5.2
2019-03-25T12:43:35.000Z,5.3
2019-03-25T12:44:41.000Z,5.4
2019-03-25T12:45:47.000Z,5.5
2019-03-25T12:46:53.000Z,5.4
2019-03-25T12:47:59.000Z,5.5
2019-03-25T12:49:06.000Z,5.6
2019-03-25T12:50:12.000Z,5.5
2019-03-25T12:51:18.000Z,5.4
2019-03-25T12:52:24.000Z,5.5
2019-03-25T12:53:31.000Z,5.5
2019-03-25T12:54:37.000Z,5.4
2019-03-25T12:55:43.000Z,5.4
2019-03-25T12:56:49.000Z,5.4
2019-03-25T12:57:55.000Z,5.4
2019-03-25T12:59:02.000Z,5.5
2019-03-25T13:00:08.000Z,5.5
2019-03-25T13:01:14.000Z,5.5
2019-03-25T13:02:20.000Z,5.6
2019-03-25T13:03:27.000Z,5.6
2019-03-25T13:04:33.000Z,5.6
2019-03-25T13:05:39.000Z,5.7
2019-03-25T13:06:45.000Z,5.8
2019-03-25T13:07:51.000Z,6
2019-03-25T13:08:58.000Z,6.2
2019-03-25T13:10:04.000Z,6.3
2019-03-25T13:12:16.000Z,6.5
2019-03-25T13:13:22.000Z,6.7
2019-03-25T13:14:29.000Z,6.5
2019-03-25T13:15:35.000Z,6.3
2019-03-25T13:16:41.000Z,6.3
2019-03-25T13:17:47.000Z,6.1
2019-03-25T13:18:54.000Z,6.4
2019-03-25T13:20:00.000Z,6.7
2019-03-25T13:21:06.000Z,6.7
2019-03-25T13:22:12.000Z,6.7
2019-03-25T13:23:18.000Z,6.4
2019-03-25T13:24:25.000Z,6.3
2019-03-25T13:25:31.000Z,6.2
2019-03-25T13:26:37.000Z,6.2
2019-03-25T13:27:43.000Z,6
2019-03-25T13:28:50.000Z,6
2019-03-25T13:29:56.000Z,6
2019-03-25T13:31:02.000Z,6
2019-03-25T13:32:08.000Z,6
2019-03-25T13:33:14.000Z,6
2019-03-25T13:34:21.000Z,6
2019-03-25T13:35:27.000Z,6.1
2019-03-25T13:36:33.000Z,6
2019-03-25T13:37:39.000Z,5.9
2019-03-25T13:38:45.000Z,5.7
2019-03-25T13:39:52.000Z,5.8
2019-03-25T13:40:58.000Z,5.8
2019-03-25T13:42:04.000Z,5.8
2019-03-25T13:43:10.000Z,5.8
2019-03-25T13:44:17.000Z,5.8
2019-03-25T13:45:23.000Z,5.7
2019-03-25T13:46:29.000Z,5.6
2019-03-25T13:47:35.000Z,5.5
2019-03-25T13:48:41.000Z,5.5
2019-03-25T13:49:48.000Z,5.5
2019-03-25T13:50:54.000Z,5.4
2019-03-25T13:52:00.000Z,5.4
2019-03-25T13:54:13.000Z,5.4
2019-03-25T13:55:19.000Z,5.3
2019-03-25T13:56:25.000Z,5.4
2019-03-25T13:57:31.000Z,5.3
2019-03-25T13:58:37.000Z,5.3
2019-03-25T14:00:50.000Z,4.9
2019-03-25T14:01:56.000Z,4.8
2019-03-25T14:03:02.000Z,4.6
2019-03-25T14:04:08.000Z,4.4
2019-03-25T14:05:15.000Z,4.3
2019-03-25T14:06:21.000Z,4.4
2019-03-25T14:07:27.000Z,4.4
2019-03-25T14:08:33.000Z,4.3
2019-03-25T14:09:40.000Z,4.3
2019-03-25T14:10:46.000Z,4.2
2019-03-25T14:11:52.000Z,4.3
2019-03-25T14:12:58.000Z,4.3
2019-03-25T14:14:04.000Z,4.4
2019-03-25T14:15:11.000Z,4.3
2019-03-25T14:16:17.000Z,4.4
2019-03-25T14:17:23.000Z,4.4
2019-03-25T14:18:29.000Z,4.5
2019-03-25T14:19:35.000Z,4.9
2019-03-25T14:20:42.000Z,5.1
2019-03-25T14:21:48.000Z,5.6
2019-03-25T14:22:54.000Z,5.6
2019-03-25T14:24:00.000Z,5.4
2019-03-25T14:25:07.000Z,5.5
2019-03-25T14:26:13.000Z,5.7
2019-03-25T14:27:19.000Z,6
2019-03-25T14:28:25.000Z,5.8
2019-03-25T14:29:31.000Z,5.8
2019-03-25T14:30:38.000Z,5.8
2019-03-25T14:31:44.000Z,6
2019-03-25T14:32:50.000Z,6.2
2019-03-25T14:33:56.000Z,6.2
2019-03-25T14:35:03.000Z,6.4
2019-03-25T14:36:09.000Z,6.7
2019-03-25T14:37:15.000Z,6.7
2019-03-25T14:38:21.000Z,7
2019-03-25T14:39:27.000Z,7.2
2019-03-25T14:40:34.000Z,6.9
2019-03-25T14:41:40.000Z,7.1
2019-03-25T14:42:46.000Z,6.9
2019-03-25T14:43:52.000Z,6.9
2019-03-25T14:44:58.000Z,6.8
2019-03-25T14:46:05.000Z,6.8
2019-03-25T14:47:11.000Z,6.9
2019-03-25T14:48:17.000Z,6.7
2019-03-25T14:49:23.000Z,6.6
2019-03-25T14:50:30.000Z,6.3
2019-03-25T14:51:36.000Z,6.3
2019-03-25T14:52:42.000Z,6.1
2019-03-25T14:53:48.000Z,6.2
2019-03-25T14:54:54.000Z,6.3
2019-03-25T14:57:07.000Z,6.2
2019-03-25T14:58:13.000Z,6.4
2019-03-25T14:59:19.000Z,6.5
2019-03-25T15:00:25.000Z,6.7
2019-03-25T15:01:32.000Z,6.9
2019-03-25T15:02:38.000Z,6.9
2019-03-25T15:03:44.000Z,6.8
2019-03-25T15:04:50.000Z,6.7
2019-03-25T15:05:57.000Z,6.6
2019-03-25T15:07:03.000Z,6.8
2019-03-25T15:08:09.000Z,6.7
2019-03-25T15:10:21.000Z,6.6
2019-03-25T15:11:28.000Z,6.4
2019-03-25T15:12:34.000Z,6.4
2019-03-25T15:13:40.000Z,6.2
2019-03-25T15:14:46.000Z,6.2
2019-03-25T15:15:53.000Z,6.1
2019-03-25T15:16:59.000Z,6.1
2019-03-25T15:18:05.000Z,5.9
2019-03-25T15:19:11.000Z,5.9
2019-03-25T15:20:17.000Z,6
2019-03-25T15:21:24.000Z,6
2019-03-25T15:22:30.337Z,6
2019-03-25T15:23:36.000Z,6.1
2019-03-25T15:24:42.000Z,6.2
2019-03-25T15:25:48.000Z,5.1
2019-03-25T15:26:55.000Z,4.6